Flight Track Log - Related Links

Times and Time Zones

All times are in EST time to prevent confusion due to time zone crossing. See the N146TJ flight status page for this flight to view local times or setup timezone preferences in your user account.

Time Position Orientation Groundspeed Altitude Reporting Facility
EST Latitude Longitude Course Direction KTS MPH feet Rate Location/Type
Fri 01:23:46 PM 42.7453 -73.8711 265° West 131 151 2,100  Level Boston Center
Fri 01:24:16 PM 42.7389 -73.8903 246° West 130 150 2,500 716 Climbing Boston Center
Fri 01:24:53 PM 42.7300 -73.9183 247° West 124 143 2,900 689 Climbing Boston Center
Fri 01:25:17 PM 42.7183 -73.9275 210° Southwest 137 158 3,200 1,000 Climbing Boston Center
Fri 01:25:47 PM 42.6956 -73.9300 185° South 147 169 3,800 1,100 Climbing Boston Center
Fri 01:26:17 PM 42.6786 -73.9303 181° South 143 165 4,300 1,400 Climbing Boston Center
Fri 01:26:47 PM 42.6589 -73.9319 184° South 136 157 5,200 1,258 Climbing Boston Center
Fri 01:27:19 PM 42.6403 -73.9264 168° South 131 151 5,600 581 Climbing Boston Center
Fri 01:27:49 PM 42.6214 -73.9133 153° Southeast 158 182 5,800 500 Climbing Boston Center
Fri 01:28:19 PM 42.6011 -73.8936 144° Southeast 166 191 6,100 590 Climbing Boston Center
Fri 01:28:50 PM 42.5806 -73.8792 153° Southeast 181 208 6,400 492 Climbing Boston Center
Fri 01:29:20 PM 42.5575 -73.8606 149° Southeast 177 204 6,600 500 Climbing Boston Center
Fri 01:29:50 PM 42.5314 -73.8422 153° Southeast 185 213 6,900 563 Climbing Boston Center
Fri 01:30:24 PM 42.5119 -73.8281 152° Southeast 181 208 7,200 492 Climbing Boston Center
Fri 01:30:51 PM 42.4858 -73.8094 152° Southeast 188 216 7,400 300 Climbing Boston Center
Fri 01:31:24 PM 42.4622 -73.7914 151° Southeast 186 214 7,500 100 Climbing Boston Center
Fri 01:31:51 PM 42.4383 -73.7761 155° Southeast 193 222 7,500  Level Boston Center
Fri 01:32:26 PM 42.4142 -73.7561 149° Southeast 195 224 7,500  Level Boston Center
Fri 01:32:53 PM 42.3914 -73.7400 152° Southeast 197 227 7,500  Level Boston Center
Fri 01:33:27 PM 42.3669 -73.7211 150° Southeast 195 224 7,500  Level Boston Center
Fri 01:33:54 PM 42.3417 -73.7061 156° South 196 226 7,500  Level Boston Center
Fri 01:34:28 PM 42.3178 -73.6842 146° Southeast 193 222 7,500  Level Boston Center
Fri 01:34:55 PM 42.2947 -73.6703 156° South 196 226 7,500  Level Boston Center
Fri 01:35:29 PM 42.2703 -73.6489 147° Southeast 192 221 7,500  Level Boston Center
Fri 01:35:56 PM 42.2475 -73.6342 154° Southeast 197 227 7,500  Level Boston Center
Fri 01:36:29 PM 42.2217 -73.6131 149° Southeast 195 224 7,500  Level Boston Center
Fri 01:37:31 PM 42.1733 -73.5797 153° Southeast 196 226 7,500  Level Boston Center
Fri 01:38:26 PM 42.1244 -73.5417 150° Southeast 199 229 7,500  Level Boston Center
Fri 01:38:32 PM 42.1264 -73.5433 328° Northwest 196 226 7,500  Level Boston Center
Fri 01:39:08 PM 42.0906 -73.5175 152° Southeast 196 226 7,500  Level Boston Center
Fri 01:39:35 PM 42.0764 -73.5086 155° Southeast 199 229 7,500  Level Boston Center
Fri 01:40:14 PM 42.0375 -73.4803 152° Southeast 197 227 7,500  Level Boston Center
Fri 01:40:35 PM 42.0217 -73.4686 151° Southeast 199 229 7,500  Level Boston Center
Fri 01:41:15 PM 41.9886 -73.4447 152° Southeast 197 227 7,500  Level Boston Center
Fri 01:41:36 PM 41.9733 -73.4339 152° Southeast 198 228 7,500  Level Boston Center
Fri 01:42:16 PM 41.9378 -73.4083 152° Southeast 195 224 7,500  Level Boston Center
Fri 01:42:40 PM 41.9219 -73.3964 151° Southeast 197 227 7,500  Level Boston Center
Fri 01:43:22 PM 41.8856 -73.3689 151° Southeast 193 222 7,500  Level Boston Center
Fri 01:43:40 PM 41.8747 -73.3619 154° Southeast 195 224 7,500  Level Boston Center
Fri 01:44:16 PM 41.8442 -73.3389 151° Southeast 194 223 7,500  Level Boston Center
Fri 01:44:41 PM 41.8267 -73.3267 153° Southeast 194 223 7,500  Level Boston Center
Fri 01:45:17 PM 41.7953 -73.3036 151° Southeast 192 221 7,500  Level Boston Center
Fri 01:45:41 PM 41.7786 -73.2931 155° Southeast 194 223 7,500  Level Boston Center
Fri 01:46:20 PM 41.7478 -73.2717 153° Southeast 191 220 7,500  Level Boston Center
Fri 01:46:44 PM 41.7319 -73.2589 149° Southeast 192 221 7,500  Level Boston Center
Fri 01:47:21 PM 41.7008 -73.2372 153° Southeast 193 222 7,500  Level Boston Center
Fri 01:47:45 PM 41.6817 -73.2222 150° Southeast 192 221 7,500  Level Boston Center
Fri 01:48:45 PM 41.6333 -73.1889 153° Southeast 193 222 7,500  Level Boston Center
Fri 01:49:49 PM 41.5864 -73.1550 152° Southeast 193 222 7,500  Level Boston Center
Fri 01:50:49 PM 41.5342 -73.1172 152° Southeast 199 229 7,500  Level Boston Center
Fri 01:51:50 PM 41.4872 -73.0833 152° Southeast 195 224 7,500  Level Boston Center
Fri 01:52:50 PM 41.4403 -73.0506 152° Southeast 193 222 7,500  Level Boston Center
Fri 01:53:51 PM 41.3947 -73.0175 151° Southeast 191 220 7,500  Level Boston Center
Fri 01:54:39 PM 41.3500 -72.9833 150° Southeast 181 208 7,500  Level New York TRACON
Fri 01:55:45 PM 41.3000 -72.9500 153° Southeast 186 214 7,500  Level New York TRACON
Fri 01:56:45 PM 41.2667 -72.9167 143° Southeast 187 215 7,500  Level New York TRACON
Fri 01:57:45 PM 41.2167 -72.8833 153° Southeast 185 213 7,500 -350 Level New York TRACON
Fri 01:58:45 PM 41.1667 -72.8500 153° Southeast 199 229 6,800 -800 Descending New York TRACON
Fri 01:59:45 PM 41.1167 -72.8167 153° Southeast 202 232 5,900 -950 Descending New York TRACON
Fri 02:00:45 PM 41.0667 -72.7833 153° Southeast 205 236 4,900 -1,000 Descending New York TRACON
Fri 02:01:45 PM 41.0167 -72.7500 153° Southeast 202 232 3,900 -630 Descending New York TRACON
Fri 02:04:05 PM 40.9208 -72.6725 149° Southeast 185 213 2,800 -448 Descending Boston Center
Fri 02:05:06 PM 40.8883 -72.6244 132° Southeast 173 199 2,400 -295 Descending Boston Center
Fri 02:06:07 PM 40.8581 -72.5803 132° Southeast 169 194 2,200 -590 Descending Boston Center
Fri 02:07:08 PM 40.8289 -72.5933 199° South 144 166 1,200 -968 Descending Boston Center
Fri 02:08:11 PM 40.8369 -72.6244 289° West 118 136 200 -537 Descending Boston Center
Fri 02:09:11 PM 40.8514 -72.6458 312° West 99 114 100 -100 Descending Boston Center

Login

Don't have an account? Register now (free) for customized features, flight alerts, and more!